Time;durP1;ratioP1;P1;durP2;ratioP2;P2;SDS_P1;SDS_P2;PMS_P1;PMS_P2;Temp;Humidity;BMP_temperature;BMP_pressure;BME280_temperature;BME280_humidity;BME280_pressure;Samples;Min_cycle;Max_cycle;Signal;HPM_P1;HPM_P2
2022/08/05 00:02:08;;;;;;;;;;;;;;;20.53;81.83;100855.78;5031174;28;19974;-78
2022/08/05 00:04:34;;;;;;;;;;;;;;;20.53;82.12;100853.97;5045142;28;19957;-78
2022/08/05 00:06:59;;;;;;;;;;;;;;;20.53;82.11;100861.88;5025132;28;20336;-78
2022/08/05 00:09:25;;;;;;;;;;;;;;;20.53;81.93;100846.06;5044403;28;19920;-78
2022/08/05 00:11:50;;;;;;;;;;;;;;;20.49;81.96;100841.06;5047982;28;19927;-78
2022/08/05 00:14:16;;;;;;;;;;;;;;;20.44;82.62;100841.34;5025791;28;19927;-78
2022/08/05 00:16:41;;;;;;;;;;;;;;;20.49;82.17;100833.16;5041955;28;19925;-78
2022/08/05 00:19:07;;;;;;;;;;;;;;;20.46;82.27;100846.53;5041492;28;19924;-78
2022/08/05 00:21:32;;;;;;;;;;;;;;;20.40;82.73;100837.22;5026130;28;19931;-78
2022/08/05 00:23:59;;;;;;;;;;;;;;;20.42;82.50;100842.38;5035772;28;20289;-78
2022/08/05 00:26:24;;;;;;;;;;;;;;;20.47;81.53;100832.41;5010267;28;20391;-78
2022/08/05 00:28:50;;;;;;;;;;;;;;;20.45;81.59;100829.00;5029359;28;19921;-78
2022/08/05 00:31:18;;;;;;;;;;;;;;;20.42;82.30;100821.25;5029651;28;20029;-78
2022/08/05 00:33:43;;;;;;;;;;;;;;;20.38;81.59;100823.28;5046552;28;19917;-78
2022/08/05 00:36:08;;;;;;;;;;;;;;;20.46;79.82;100818.38;5046166;28;19924;-78
2022/08/05 00:38:34;;;;;;;;;;;;;;;20.44;79.10;100822.03;5012723;28;20532;-78
2022/08/05 00:41:00;;;;;;;;;;;;;;;20.41;79.68;100823.09;5035303;28;19921;-78
2022/08/05 00:43:25;;;;;;;;;;;;;;;20.42;78.80;100816.00;5047264;28;19933;-78
2022/08/05 00:45:50;;;;;;;;;;;;;;;20.39;80.29;100811.75;5046016;28;19929;-78
2022/08/05 00:48:17;;;;;;;;;;;;;;;20.33;80.85;100812.97;5030876;28;19964;-78
2022/08/05 00:50:44;;;;;;;;;;;;;;;20.28;81.12;100816.84;5034162;28;19975;-78
2022/08/05 00:53:09;;;;;;;;;;;;;;;20.28;80.75;100809.78;5049221;28;19927;-78
2022/08/05 00:55:35;;;;;;;;;;;;;;;20.29;79.72;100808.81;5036404;28;19925;-78
2022/08/05 00:58:00;;;;;;;;;;;;;;;20.26;79.72;100809.00;5026664;28;20294;-78
2022/08/05 01:00:26;;;;;;;;;;;;;;;20.26;80.16;100816.09;5013723;28;19921;-78
2022/08/05 01:02:52;;;;;;;;;;;;;;;20.22;79.80;100818.06;5034641;28;19929;-78
2022/08/05 01:05:17;;;;;;;;;;;;;;;20.18;80.73;100818.31;5032700;28;19982;-78
2022/08/05 01:07:43;;;;;;;;;;;;;;;20.16;80.80;100822.84;5028680;28;20348;-78
2022/08/05 01:10:09;;;;;;;;;;;;;;;20.14;80.52;100830.88;5031178;28;20187;-78
2022/08/05 01:12:35;;;;;;;;;;;;;;;20.13;80.57;100834.44;5023489;28;20508;-78
2022/08/05 01:15:02;;;;;;;;;;;;;;;20.18;79.00;100840.28;5039385;28;19963;-78
2022/08/05 01:17:37;;;;;;;;;;;;;;;20.22;77.97;100849.72;5029955;28;19925;-78
2022/08/05 01:20:19;;;;;;;;;;;;;;;20.18;77.80;100847.34;5047536;28;19966;-78
2022/08/05 01:23:00;;;;;;;;;;;;;;;20.13;77.06;100842.34;5032599;28;20389;-78
2022/08/05 01:25:29;;;;;;;;;;;;;;;20.13;76.64;100834.44;5049968;28;20457;-78
2022/08/05 01:27:57;;;;;;;;;;;;;;;20.21;75.98;100840.09;5031625;28;19931;-78
2022/08/05 01:30:27;;;;;;;;;;;;;;;20.22;75.14;100835.66;5045235;28;19924;-78
2022/08/05 01:32:55;;;;;;;;;;;;;;;20.15;76.47;100832.53;5046432;28;19928;-78
2022/08/05 01:35:23;;;;;;;;;;;;;;;20.21;75.59;100831.31;5047968;28;20440;-78
2022/08/05 01:37:50;;;;;;;;;;;;;;;20.15;75.28;100840.44;5043580;28;19951;-78
2022/08/05 01:40:17;;;;;;;;;;;;;;;20.10;75.87;100833.75;5043515;28;19925;-78
2022/08/05 01:42:44;;;;;;;;;;;;;;;20.13;74.11;100826.53;5049164;28;19921;-78
2022/08/05 01:45:11;;;;;;;;;;;;;;;20.15;74.26;100829.91;5025298;28;20353;-78
2022/08/05 01:47:37;;;;;;;;;;;;;;;20.03;75.28;100829.75;5014123;28;19921;-78
2022/08/05 01:50:08;;;;;;;;;;;;;;;20.02;74.76;100825.44;5022280;28;19974;-78
2022/08/05 01:52:37;;;;;;;;;;;;;;;19.91;74.48;100814.63;5045110;28;19928;-78
2022/08/05 01:55:05;;;;;;;;;;;;;;;19.94;74.02;100803.91;5042119;28;19932;-78
2022/08/05 01:57:32;;;;;;;;;;;;;;;19.90;73.91;100797.16;5025949;28;19951;-78
2022/08/05 01:59:59;;;;;;;;;;;;;;;19.92;73.38;100811.06;5047083;28;19960;-78
2022/08/05 02:02:26;;;;;;;;;;;;;;;19.88;73.07;100828.03;5044790;28;19940;-78
2022/08/05 02:04:53;;;;;;;;;;;;;;;19.94;73.41;100833.78;5052684;28;20553;-78
2022/08/05 02:07:19;;;;;;;;;;;;;;;19.84;73.10;100845.81;5024306;28;19921;-78
2022/08/05 02:09:44;;;;;;;;;;;;;;;19.86;73.07;100859.75;5045929;28;19924;-78
2022/08/05 02:12:26;;;;;;;;;;;;;;;19.78;73.89;100852.28;5032674;28;19936;-78
2022/08/05 02:14:56;;;;;;;;;;;;;;;19.76;73.61;100854.16;5049808;28;19956;-78
2022/08/05 02:17:28;;;;;;;;;;;;;;;19.73;74.02;100872.78;5046407;28;19924;-78
2022/08/05 02:19:57;;;;;;;;;;;;;;;19.83;72.96;100909.16;5024838;28;19976;-78
2022/08/05 02:22:31;;;;;;;;;;;;;;;19.82;72.70;100944.38;5041873;28;19921;-78
2022/08/05 02:25:03;;;;;;;;;;;;;;;19.58;72.67;100965.06;5047793;28;19989;-79
2022/08/05 02:27:31;;;;;;;;;;;;;;;19.63;71.92;100990.22;5044128;28;19924;-78
2022/08/05 02:30:00;;;;;;;;;;;;;;;19.56;72.57;100993.25;5032408;28;19929;-78
2022/08/05 02:32:27;;;;;;;;;;;;;;;19.52;72.00;101007.53;5050313;28;20296;-79
2022/08/05 02:34:53;;;;;;;;;;;;;;;19.39;73.17;101006.50;5051901;28;19932;-79
2022/08/05 02:37:19;;;;;;;;;;;;;;;19.62;72.40;100992.91;5045381;28;19925;-79
2022/08/05 02:39:45;;;;;;;;;;;;;;;19.49;73.92;100984.00;5028338;28;19973;-79
2022/08/05 02:42:12;;;;;;;;;;;;;;;19.50;75.26;100986.53;5029896;28;20324;-79
2022/08/05 02:44:38;;;;;;;;;;;;;;;19.61;73.28;100988.59;5047499;28;19955;-79
2022/08/05 02:47:04;;;;;;;;;;;;;;;19.44;73.06;100989.50;5019163;28;20117;-79
2022/08/05 02:49:32;;;;;;;;;;;;;;;19.47;72.75;100988.47;5047622;28;19980;-79
2022/08/05 02:51:58;;;;;;;;;;;;;;;19.49;73.00;100987.47;5041593;28;19924;-79
2022/08/05 02:54:24;;;;;;;;;;;;;;;19.43;72.80;100985.16;5047861;28;19924;-78
2022/08/05 02:56:50;;;;;;;;;;;;;;;19.59;72.13;100978.13;5020606;28;19928;-78
2022/08/05 02:59:17;;;;;;;;;;;;;;;19.58;73.35;100997.50;5056160;28;19932;-78
2022/08/05 03:01:43;;;;;;;;;;;;;;;19.61;73.05;101004.41;5044185;28;19929;-78
2022/08/05 03:04:13;;;;;;;;;;;;;;;19.50;73.92;101007.63;5029559;28;19920;-78
2022/08/05 03:06:39;;;;;;;;;;;;;;;19.53;74.89;100996.06;5046983;28;19927;-78
2022/08/05 03:09:05;;;;;;;;;;;;;;;19.51;74.60;101001.41;5052680;28;19917;-78
2022/08/05 03:11:30;;;;;;;;;;;;;;;19.38;75.35;101002.16;5029822;28;19920;-77
2022/08/05 03:13:56;;;;;;;;;;;;;;;19.43;74.76;101006.22;5029043;28;19990;-78
2022/08/05 03:16:21;;;;;;;;;;;;;;;19.49;74.33;101013.81;5030046;28;19921;-78
2022/08/05 03:18:47;;;;;;;;;;;;;;;19.51;75.25;101017.22;5030781;28;19917;-78
2022/08/05 03:21:13;;;;;;;;;;;;;;;19.48;75.11;101020.03;5050062;28;19928;-78
2022/08/05 03:23:41;;;;;;;;;;;;;;;19.51;76.00;101014.59;5045645;28;20532;-78
2022/08/05 03:26:06;;;;;;;;;;;;;;;19.46;75.08;101027.13;5044479;28;20385;-78
2022/08/05 03:28:32;;;;;;;;;;;;;;;19.54;75.95;101038.16;5028664;28;19964;-78
2022/08/05 03:30:58;;;;;;;;;;;;;;;19.57;76.94;101053.78;5015429;28;20411;-78
2022/08/05 03:33:24;;;;;;;;;;;;;;;19.49;77.61;101052.50;5047173;28;19916;-78
2022/08/05 03:35:50;;;;;;;;;;;;;;;19.42;77.54;101054.59;5028692;28;19925;-78
2022/08/05 03:38:15;;;;;;;;;;;;;;;19.36;77.41;101040.91;5031460;28;19932;-78
2022/08/05 03:40:41;;;;;;;;;;;;;;;19.36;77.48;101031.22;5031834;28;19970;-78
2022/08/05 03:43:07;;;;;;;;;;;;;;;19.35;77.49;101023.38;5015448;28;19924;-78
2022/08/05 03:45:32;;;;;;;;;;;;;;;19.41;77.33;101030.97;5040612;28;19916;-78
2022/08/05 03:47:57;;;;;;;;;;;;;;;19.44;77.61;101029.03;5043554;28;20408;-78
2022/08/05 03:50:23;;;;;;;;;;;;;;;19.41;78.72;101015.16;5050231;28;19925;-78
2022/08/05 03:52:57;;;;;;;;;;;;;;;19.42;77.77;101014.22;5033934;28;19921;-78
2022/08/05 03:55:31;;;;;;;;;;;;;;;19.36;78.46;100991.72;5051190;28;19921;-78
2022/08/05 03:57:57;;;;;;;;;;;;;;;19.41;78.51;100986.19;5043205;28;20462;-78
2022/08/05 04:00:28;;;;;;;;;;;;;;;19.40;78.14;100966.06;5042128;28;20008;-78
2022/08/05 04:02:55;;;;;;;;;;;;;;;19.35;78.34;100968.06;5025782;28;19978;-78
2022/08/05 04:05:21;;;;;;;;;;;;;;;19.40;78.34;100987.94;5033824;28;19917;-78
2022/08/05 04:07:50;;;;;;;;;;;;;;;19.31;78.88;100977.94;5033085;28;19928;-78
2022/08/05 04:10:16;;;;;;;;;;;;;;;19.29;79.18;100968.38;5033971;28;19999;-78
2022/08/05 04:12:41;;;;;;;;;;;;;;;19.24;79.48;100974.75;5029971;28;20457;-78
2022/08/05 04:15:07;;;;;;;;;;;;;;;19.22;79.17;100976.59;5036984;28;20335;-78
2022/08/05 04:17:33;;;;;;;;;;;;;;;19.20;78.85;100960.03;5049385;28;20389;-78
2022/08/05 04:19:58;;;;;;;;;;;;;;;19.24;78.23;100950.19;5045448;28;19921;-78
2022/08/05 04:22:23;;;;;;;;;;;;;;;19.24;78.04;100924.69;5030720;28;20298;-78
2022/08/05 04:24:49;;;;;;;;;;;;;;;19.27;78.49;100902.59;5042211;28;19940;-78
2022/08/05 04:27:15;;;;;;;;;;;;;;;19.28;78.27;100867.47;5048121;28;19928;-78
2022/08/05 04:29:40;;;;;;;;;;;;;;;19.25;77.84;100817.56;5029599;28;20007;-78
2022/08/05 04:32:06;;;;;;;;;;;;;;;19.16;78.15;100813.63;5046711;28;19975;-78
2022/08/05 04:34:32;;;;;;;;;;;;;;;19.22;78.17;100834.38;5031207;28;19925;-78
2022/08/05 04:36:57;;;;;;;;;;;;;;;19.25;78.42;100830.75;5054762;28;19951;-78
2022/08/05 04:39:23;;;;;;;;;;;;;;;19.23;77.88;100830.81;5051019;28;20331;-78
2022/08/05 04:41:48;;;;;;;;;;;;;;;19.23;78.48;100838.72;5031821;28;19928;-78
2022/08/05 04:44:14;;;;;;;;;;;;;;;19.19;78.43;100852.97;5051027;28;19929;-78
2022/08/05 04:46:39;;;;;;;;;;;;;;;19.22;78.67;100852.81;5029532;28;20638;-78
2022/08/05 04:49:05;;;;;;;;;;;;;;;19.22;78.88;100852.81;5026001;28;19932;-78
2022/08/05 04:51:31;;;;;;;;;;;;;;;19.22;78.43;100841.44;5021249;28;19960;-78
2022/08/05 04:53:57;;;;;;;;;;;;;;;19.21;78.83;100845.84;5045581;28;20475;-78
2022/08/05 04:56:22;;;;;;;;;;;;;;;19.24;78.93;100895.72;5028173;28;19972;-78
2022/08/05 04:58:48;;;;;;;;;;;;;;;19.01;78.54;100917.19;5028087;28;19929;-78
2022/08/05 05:01:13;;;;;;;;;;;;;;;18.99;79.07;100929.56;5025951;28;19964;-78
2022/08/05 05:03:38;;;;;;;;;;;;;;;19.17;78.78;100928.59;5027088;28;19921;-78
2022/08/05 05:06:04;;;;;;;;;;;;;;;19.26;78.49;100919.34;5044160;28;19921;-78
2022/08/05 05:08:32;;;;;;;;;;;;;;;19.21;78.03;100934.53;5024921;28;19928;-78
2022/08/05 05:10:57;;;;;;;;;;;;;;;19.12;77.56;100933.25;5016554;28;19947;-78
2022/08/05 05:13:23;;;;;;;;;;;;;;;19.20;77.93;100944.22;5041381;28;19942;-78
2022/08/05 05:15:48;;;;;;;;;;;;;;;19.07;78.66;100955.50;5027826;28;19925;-78
2022/08/05 05:18:14;;;;;;;;;;;;;;;19.13;78.19;100971.81;5029527;28;20486;-78
2022/08/05 05:20:41;;;;;;;;;;;;;;;19.09;78.02;100965.03;5032195;28;19952;-78
2022/08/05 05:23:06;;;;;;;;;;;;;;;19.23;77.03;100945.84;5041200;28;19967;-78
2022/08/05 05:25:31;;;;;;;;;;;;;;;19.10;77.91;100947.44;5032048;28;20361;-78
2022/08/05 05:27:57;;;;;;;;;;;;;;;19.13;77.16;100953.38;5034220;28;20369;-78
2022/08/05 05:30:23;;;;;;;;;;;;;;;19.18;78.07;100961.06;5048373;28;19917;-78
2022/08/05 05:32:48;;;;;;;;;;;;;;;19.17;77.22;100954.94;5049992;28;19956;-78
2022/08/05 05:35:13;;;;;;;;;;;;;;;19.22;77.77;100947.63;5022414;28;20536;-78
2022/08/05 05:37:46;;;;;;;;;;;;;;;19.21;78.25;100958.25;5019000;28;19933;-78
2022/08/05 05:40:13;;;;;;;;;;;;;;;19.23;78.79;100966.91;5034924;28;20457;-78
2022/08/05 05:42:38;;;;;;;;;;;;;;;19.26;78.93;100974.66;5039807;28;20004;-78
2022/08/05 05:45:04;;;;;;;;;;;;;;;19.25;78.67;100981.69;5032538;28;19933;-78
2022/08/05 05:47:29;;;;;;;;;;;;;;;19.24;78.29;100987.06;5029128;28;19928;-78
2022/08/05 05:49:54;;;;;;;;;;;;;;;19.31;78.19;100974.44;5046329;28;20389;-78
2022/08/05 05:52:22;;;;;;;;;;;;;;;19.33;78.35;100977.84;5012066;28;19921;-78
2022/08/05 05:54:47;;;;;;;;;;;;;;;19.24;77.84;100974.75;5031570;28;20012;-78
2022/08/05 05:57:13;;;;;;;;;;;;;;;19.29;78.62;100982.41;5036117;28;20011;-78
2022/08/05 05:59:38;;;;;;;;;;;;;;;19.36;79.38;100994.34;5030143;28;20338;-78
2022/08/05 06:02:04;;;;;;;;;;;;;;;19.35;79.08;100984.72;5032419;28;19975;-78
2022/08/05 06:04:29;;;;;;;;;;;;;;;19.40;77.99;100976.59;5016242;28;20297;-78
2022/08/05 06:06:54;;;;;;;;;;;;;;;19.42;78.70;100990.53;5026897;28;19921;-78
2022/08/05 06:09:20;;;;;;;;;;;;;;;19.44;78.16;100981.59;5054163;28;19917;-78
2022/08/05 06:11:45;;;;;;;;;;;;;;;19.44;78.36;100972.84;5033728;28;19951;-79
2022/08/05 06:14:10;;;;;;;;;;;;;;;19.50;79.04;100973.34;5013052;28;19925;-79
2022/08/05 06:16:36;;;;;;;;;;;;;;;19.53;78.52;100973.19;5063984;28;19931;-79
2022/08/05 06:19:01;;;;;;;;;;;;;;;19.51;78.28;100979.47;5053014;28;19973;-79
2022/08/05 06:21:26;;;;;;;;;;;;;;;19.48;77.99;100979.66;5046162;28;20472;-79
2022/08/05 06:23:52;;;;;;;;;;;;;;;19.56;77.11;100987.97;5028908;28;19932;-79
2022/08/05 06:26:17;;;;;;;;;;;;;;;19.60;77.00;100985.09;5039821;28;19982;-79
2022/08/05 06:28:42;;;;;;;;;;;;;;;19.62;76.18;100987.66;5031403;28;19920;-79
2022/08/05 06:31:08;;;;;;;;;;;;;;;19.56;76.40;100988.84;5033087;28;19927;-79
2022/08/05 06:33:33;;;;;;;;;;;;;;;19.59;76.23;100993.94;5047545;28;19962;-79
2022/08/05 06:35:58;;;;;;;;;;;;;;;19.57;76.78;100997.59;5032996;28;19952;-79
2022/08/05 06:38:24;;;;;;;;;;;;;;;19.55;77.82;100995.03;5047614;28;20316;-78
2022/08/05 06:40:49;;;;;;;;;;;;;;;19.60;77.79;101007.97;5050072;28;19987;-78
2022/08/05 06:43:15;;;;;;;;;;;;;;;19.59;77.86;101008.91;5032512;28;20027;-79
2022/08/05 06:45:40;;;;;;;;;;;;;;;19.57;78.14;101002.88;5050851;28;19932;-79
2022/08/05 06:48:06;;;;;;;;;;;;;;;19.55;76.46;101008.19;5044802;28;19917;-79
2022/08/05 06:50:31;;;;;;;;;;;;;;;19.59;77.45;101007.13;5048403;28;19947;-79
2022/08/05 06:52:57;;;;;;;;;;;;;;;19.50;77.83;101010.25;5030566;28;19924;-79
2022/08/05 06:55:22;;;;;;;;;;;;;;;19.57;78.33;101019.53;5032576;28;19960;-79
2022/08/05 06:57:47;;;;;;;;;;;;;;;19.61;77.26;101022.84;5050918;28;19929;-79
2022/08/05 07:00:13;;;;;;;;;;;;;;;19.60;76.18;101032.53;5032907;28;20532;-79
2022/08/05 07:02:42;;;;;;;;;;;;;;;19.52;77.74;101029.44;5045580;28;19921;-79
2022/08/05 07:05:08;;;;;;;;;;;;;;;19.51;76.10;101030.41;5051185;28;19927;-79
2022/08/05 07:07:33;;;;;;;;;;;;;;;19.58;76.33;101028.28;5032352;28;19929;-79
2022/08/05 07:09:58;;;;;;;;;;;;;;;19.59;75.98;101045.78;5033228;28;19920;-79
2022/08/05 07:17:52;;;;;;;;;;;;;;;19.54;77.53;101046.06;5029508;28;19932;-79
2022/08/05 07:20:17;;;;;;;;;;;;;;;19.57;77.52;101050.31;5035192;28;19920;-79
2022/08/05 07:22:42;;;;;;;;;;;;;;;19.56;76.80;101059.13;5029035;28;19921;-79
2022/08/05 07:25:08;;;;;;;;;;;;;;;19.52;76.71;101061.06;5052179;28;19920;-79
2022/08/05 07:27:33;;;;;;;;;;;;;;;19.53;76.47;101059.28;5045862;28;19917;-79
2022/08/05 07:29:59;;;;;;;;;;;;;;;19.49;76.34;101065.69;5031343;28;20288;-79
2022/08/05 07:32:24;;;;;;;;;;;;;;;19.51;76.63;101064.66;5012814;28;19920;-79
2022/08/05 07:34:49;;;;;;;;;;;;;;;19.59;75.14;101066.88;5016837;28;19972;-79
2022/08/05 07:37:15;;;;;;;;;;;;;;;19.57;75.75;101056.44;5044603;28;19931;-79
2022/08/05 07:39:40;;;;;;;;;;;;;;;19.60;75.01;101066.81;5051695;28;19921;-79
2022/08/05 07:42:05;;;;;;;;;;;;;;;19.55;75.21;101063.53;5033593;28;19917;-79
2022/08/05 07:44:31;;;;;;;;;;;;;;;19.64;76.47;101070.13;5036497;28;19955;-79
2022/08/05 07:46:57;;;;;;;;;;;;;;;19.59;75.56;101067.72;5030965;28;19924;-79
2022/08/05 07:49:22;;;;;;;;;;;;;;;19.74;75.40;101079.22;5053820;28;19932;-79
2022/08/05 07:51:48;;;;;;;;;;;;;;;19.79;76.29;101072.78;5046323;28;19917;-79
2022/08/05 07:54:13;;;;;;;;;;;;;;;19.84;75.74;101074.31;5050321;28;19917;-79
2022/08/05 07:56:38;;;;;;;;;;;;;;;19.81;75.82;101080.63;5032458;28;19956;-79
2022/08/05 07:59:04;;;;;;;;;;;;;;;19.92;75.56;101078.22;5032952;28;20289;-79
2022/08/05 08:01:31;;;;;;;;;;;;;;;19.90;74.84;101089.81;5028808;28;22086;-79
2022/08/05 08:03:56;;;;;;;;;;;;;;;19.82;74.26;101095.47;5052290;28;19932;-79
2022/08/05 08:06:22;;;;;;;;;;;;;;;19.86;75.49;101104.94;5031931;28;19931;-79
2022/08/05 08:08:47;;;;;;;;;;;;;;;19.96;75.60;101095.59;5029936;28;19921;-79
2022/08/05 08:11:14;;;;;;;;;;;;;;;20.01;75.98;101108.53;5034956;28;20412;-79
2022/08/05 08:13:39;;;;;;;;;;;;;;;19.85;74.99;101111.13;5027331;28;19921;-79
2022/08/05 08:16:05;;;;;;;;;;;;;;;19.91;74.97;101107.31;5048254;28;19971;-79
2022/08/05 08:18:30;;;;;;;;;;;;;;;19.97;75.53;101120.16;5042006;28;19921;-79
2022/08/05 08:20:55;;;;;;;;;;;;;;;19.97;74.52;101121.00;5019691;28;20011;-79
2022/08/05 08:23:21;;;;;;;;;;;;;;;19.91;74.78;101121.34;5028689;28;19925;-79
2022/08/05 08:25:46;;;;;;;;;;;;;;;19.68;74.96;101121.72;5021215;28;19927;-79
2022/08/05 08:28:11;;;;;;;;;;;;;;;19.86;74.63;101133.06;5041787;28;20375;-79
2022/08/05 08:30:37;;;;;;;;;;;;;;;19.66;74.91;101142.91;5033435;28;19938;-79
2022/08/05 08:33:09;;;;;;;;;;;;;;;19.75;74.29;101141.56;5008908;28;20354;-79
2022/08/05 08:35:35;;;;;;;;;;;;;;;19.64;74.36;101143.94;5006226;28;20000;-79
2022/08/05 08:38:00;;;;;;;;;;;;;;;19.72;74.86;101147.00;5033478;28;19959;-79
2022/08/05 08:40:26;;;;;;;;;;;;;;;19.55;75.33;101147.88;5024257;28;19921;-79
2022/08/05 08:42:51;;;;;;;;;;;;;;;19.56;75.97;101152.22;5041649;28;20304;-79
2022/08/05 08:45:19;;;;;;;;;;;;;;;19.74;75.33;101146.00;5008429;28;19917;-79
2022/08/05 08:47:45;;;;;;;;;;;;;;;19.62;74.32;101151.91;5032288;28;20285;-79
2022/08/05 08:50:11;;;;;;;;;;;;;;;19.57;75.16;101167.09;5007773;28;20056;-79
2022/08/05 08:52:37;;;;;;;;;;;;;;;19.49;75.53;101165.81;5021922;28;20374;-79
2022/08/05 08:55:03;;;;;;;;;;;;;;;19.53;75.14;101160.28;5028886;28;19927;-79
2022/08/05 08:57:28;;;;;;;;;;;;;;;19.52;75.20;101171.75;5047712;28;19913;-79
2022/08/05 08:59:54;;;;;;;;;;;;;;;19.38;74.96;101168.97;5047910;28;19995;-79
2022/08/05 09:02:19;;;;;;;;;;;;;;;19.50;74.89;101170.97;5053875;28;20034;-79
2022/08/05 09:04:45;;;;;;;;;;;;;;;19.65;74.81;101164.91;5045603;28;20312;-79
2022/08/05 09:07:11;;;;;;;;;;;;;;;19.52;75.13;101158.56;5045455;28;19925;-79
2022/08/05 09:09:37;;;;;;;;;;;;;;;19.50;74.78;101155.16;5039891;28;19917;-79
2022/08/05 09:12:03;;;;;;;;;;;;;;;19.54;73.91;101155.88;5025959;28;20382;-79
2022/08/05 09:14:30;;;;;;;;;;;;;;;19.41;73.63;101157.41;5026061;28;19921;-79
2022/08/05 09:16:55;;;;;;;;;;;;;;;19.29;74.50;101151.00;5047020;28;20022;-79
2022/08/05 09:19:21;;;;;;;;;;;;;;;19.33;74.47;101155.19;5030874;28;19925;-79
2022/08/05 09:21:46;;;;;;;;;;;;;;;19.32;74.01;101157.88;5027270;28;19928;-79
2022/08/05 09:24:12;;;;;;;;;;;;;;;19.34;74.03;101142.88;5020318;28;19929;-79
2022/08/05 09:26:37;;;;;;;;;;;;;;;19.37;73.82;101150.63;5047318;28;19921;-79
2022/08/05 09:29:07;;;;;;;;;;;;;;;19.25;74.00;101152.91;5029564;28;19924;-79
2022/08/05 09:31:33;;;;;;;;;;;;;;;19.36;73.62;101159.44;5029157;28;19929;-79
2022/08/05 09:34:05;;;;;;;;;;;;;;;19.37;72.53;101158.53;5043408;28;19928;-79
2022/08/05 09:36:37;;;;;;;;;;;;;;;19.40;72.67;101167.09;5050456;28;19921;-79
2022/08/05 09:39:04;;;;;;;;;;;;;;;19.32;73.00;101171.91;5038582;28;19920;-79
2022/08/05 09:41:30;;;;;;;;;;;;;;;19.15;73.28;101178.00;5029220;28;20015;-79
2022/08/05 09:43:55;;;;;;;;;;;;;;;19.22;73.63;101176.75;5031240;28;20338;-79
2022/08/05 09:46:28;;;;;;;;;;;;;;;19.41;73.68;101186.41;5049609;28;20425;-79
2022/08/05 09:48:57;;;;;;;;;;;;;;;19.23;73.50;101190.78;5018040;28;19927;-79
2022/08/05 09:51:40;;;;;;;;;;;;;;;19.25;73.44;101189.78;5036174;28;20310;-79
2022/08/05 09:54:07;;;;;;;;;;;;;;;19.08;73.51;101195.03;5046101;28;20309;-79
2022/08/05 09:56:36;;;;;;;;;;;;;;;19.08;73.60;101207.34;5047710;28;20535;-79
2022/08/05 09:59:12;;;;;;;;;;;;;;;19.12;72.92;101208.91;5046543;28;20008;-79
2022/08/05 10:01:41;;;;;;;;;;;;;;;19.20;72.37;101199.69;5044114;28;19956;-78
2022/08/05 10:04:12;;;;;;;;;;;;;;;19.08;72.34;101208.19;5052815;28;19921;-78
2022/08/05 10:06:42;;;;;;;;;;;;;;;18.99;73.10;101207.78;5041776;28;19925;-79
2022/08/05 10:09:14;;;;;;;;;;;;;;;18.96;72.20;101215.84;5043729;28;19937;-79
2022/08/05 10:11:40;;;;;;;;;;;;;;;18.91;72.60;101223.97;5028863;28;19925;-79
2022/08/05 10:14:41;;;;;;;;;;;;;;;18.75;73.30;101223.00;5029517;28;19921;-79
2022/08/05 10:17:13;;;;;;;;;;;;;;;18.69;73.37;101231.19;5010948;28;20361;-79
2022/08/05 10:19:39;;;;;;;;;;;;;;;18.84;72.57;101237.53;5043136;28;19929;-79
2022/08/05 10:22:06;;;;;;;;;;;;;;;18.96;72.58;101250.94;5025920;28;20310;-79
2022/08/05 10:24:32;;;;;;;;;;;;;;;18.97;72.58;101251.78;5045789;28;19925;-79
2022/08/05 10:26:58;;;;;;;;;;;;;;;18.77;72.42;101265.03;5030306;28;20456;-79
2022/08/05 10:29:25;;;;;;;;;;;;;;;18.69;72.05;101265.38;5029146;28;19960;-79
2022/08/05 10:31:51;;;;;;;;;;;;;;;18.75;71.63;101270.38;5026617;28;19928;-79
2022/08/05 10:34:16;;;;;;;;;;;;;;;18.65;72.46;101272.59;5043464;28;19928;-79
2022/08/05 10:36:42;;;;;;;;;;;;;;;18.67;72.08;101280.41;5045603;28;20381;-79
2022/08/05 10:39:10;;;;;;;;;;;;;;;18.66;72.21;101278.69;5035125;28;19921;-79
2022/08/05 10:41:42;;;;;;;;;;;;;;;18.88;71.30;101289.06;5050019;28;19932;-79
2022/08/05 10:44:11;;;;;;;;;;;;;;;18.64;71.60;101294.56;5049328;28;19928;-79
2022/08/05 10:46:45;;;;;;;;;;;;;;;18.58;72.43;101299.25;5022254;28;19921;-79
2022/08/05 10:49:10;;;;;;;;;;;;;;;18.86;71.64;101297.06;5044293;28;19924;-79
2022/08/05 10:51:46;;;;;;;;;;;;;;;18.73;71.58;101305.59;5027052;28;19921;-79
2022/08/05 10:54:11;;;;;;;;;;;;;;;18.64;71.22;101304.22;5046230;28;19953;-79
2022/08/05 10:56:50;;;;;;;;;;;;;;;18.81;71.86;101309.56;5033543;28;19963;-78
2022/08/05 10:59:26;;;;;;;;;;;;;;;18.69;70.87;101316.25;5029400;28;20394;-79
2022/08/05 11:02:08;;;;;;;;;;;;;;;18.65;70.15;101319.97;5038330;28;19996;-79
2022/08/05 11:04:46;;;;;;;;;;;;;;;18.82;70.26;101323.59;5033226;28;19925;-79
2022/08/05 11:07:15;;;;;;;;;;;;;;;18.93;69.23;101314.25;5045292;28;19948;-79
2022/08/05 11:09:44;;;;;;;;;;;;;;;18.77;69.23;101325.59;5044323;28;19916;-79
2022/08/05 11:12:25;;;;;;;;;;;;;;;18.88;68.32;101336.47;5023323;28;20390;-79
2022/08/05 11:15:06;;;;;;;;;;;;;;;18.68;68.04;101350.53;5047697;28;19920;-79
2022/08/05 11:17:33;;;;;;;;;;;;;;;18.69;68.49;101344.34;5046095;28;19921;-79
2022/08/05 11:19:59;;;;;;;;;;;;;;;18.78;67.50;101343.91;5029995;28;20642;-79
2022/08/05 11:22:39;;;;;;;;;;;;;;;18.80;67.36;101346.50;5047049;28;20405;-79
2022/08/05 11:25:23;;;;;;;;;;;;;;;18.89;67.54;101356.59;5038700;28;20007;-79
2022/08/05 11:27:48;;;;;;;;;;;;;;;18.81;67.03;101366.66;5030936;28;19960;-79
2022/08/05 11:30:14;;;;;;;;;;;;;;;18.94;66.53;101363.38;5032948;28;19980;-79
2022/08/05 11:32:39;;;;;;;;;;;;;;;19.00;65.69;101376.25;5026228;28;20008;-79
2022/08/05 11:35:05;;;;;;;;;;;;;;;19.02;65.07;101366.50;5051619;28;19928;-79
2022/08/05 11:37:40;;;;;;;;;;;;;;;19.04;64.94;101377.81;5031285;28;19925;-79
2022/08/05 11:40:06;;;;;;;;;;;;;;;19.17;65.63;101378.94;5031802;28;19982;-79
2022/08/05 11:42:35;;;;;;;;;;;;;;;19.12;65.05;101382.72;5040088;28;19917;-79
2022/08/05 11:45:02;;;;;;;;;;;;;;;19.25;64.76;101391.78;5032448;28;19921;-79
2022/08/05 11:47:28;;;;;;;;;;;;;;;19.22;64.54;101389.28;5031518;28;19928;-79
2022/08/05 11:49:55;;;;;;;;;;;;;;;19.19;62.87;101386.78;5035975;28;19920;-79
2022/08/05 11:52:24;;;;;;;;;;;;;;;19.31;63.52;101398.56;5040806;28;20011;-79
2022/08/05 11:54:51;;;;;;;;;;;;;;;19.40;63.71;101392.84;5027444;28;19917;-78
2022/08/05 11:57:16;;;;;;;;;;;;;;;19.52;63.43;101394.91;5024357;28;20306;-78
2022/08/05 11:59:42;;;;;;;;;;;;;;;19.45;63.49;101396.13;5048130;28;19929;-79
2022/08/05 12:02:08;;;;;;;;;;;;;;;19.54;63.35;101398.31;5028663;28;19931;-79
2022/08/05 12:04:43;;;;;;;;;;;;;;;19.51;62.44;101396.69;5032602;28;20015;-79
2022/08/05 12:07:10;;;;;;;;;;;;;;;19.34;61.24;101394.00;5053780;28;19921;-79
2022/08/05 12:09:36;;;;;;;;;;;;;;;19.32;62.05;101395.84;5023744;28;19956;-79
2022/08/05 12:12:03;;;;;;;;;;;;;;;19.39;62.09;101397.28;5049736;28;19964;-79
2022/08/05 12:14:55;;;;;;;;;;;;;;;19.36;61.75;101396.56;5047338;28;20007;-79
2022/08/05 12:17:21;;;;;;;;;;;;;;;19.32;61.76;101395.84;5043369;28;19921;-79
2022/08/05 12:19:50;;;;;;;;;;;;;;;19.32;62.25;101400.25;5031681;28;20481;-79
2022/08/05 12:22:17;;;;;;;;;;;;;;;19.35;62.05;101390.44;5030282;28;19990;-79
2022/08/05 12:24:43;;;;;;;;;;;;;;;19.41;63.22;101392.78;5034671;28;19978;-79
2022/08/05 12:27:09;;;;;;;;;;;;;;;19.52;63.19;101387.81;5031759;28;19951;-79
2022/08/05 12:29:37;;;;;;;;;;;;;;;19.54;62.37;101393.91;5046658;28;19952;-79
2022/08/05 12:32:04;;;;;;;;;;;;;;;19.40;61.36;101398.94;5028887;28;20390;-79
2022/08/05 12:34:30;;;;;;;;;;;;;;;19.58;62.13;101391.97;5027596;28;19920;-79
2022/08/05 12:36:57;;;;;;;;;;;;;;;19.50;62.23;101399.38;5035621;28;19929;-79
2022/08/05 12:39:24;;;;;;;;;;;;;;;19.67;61.77;101397.63;5044659;28;20415;-79
2022/08/05 12:41:49;;;;;;;;;;;;;;;19.64;61.44;101397.78;5027300;28;20389;-79